sensor_id;sensor_type;location;lat;lon;timestamp;temperature;humidity
13992;DHT22;7070;53.586;9.692;2023-07-20T00:01:30;14.30;80.10
13992;DHT22;7070;53.586;9.692;2023-07-20T00:03:57;14.40;81.00
13992;DHT22;7070;53.586;9.692;2023-07-20T00:06:25;14.50;80.30
13992;DHT22;7070;53.586;9.692;2023-07-20T00:08:53;14.50;80.50
13992;DHT22;7070;53.586;9.692;2023-07-20T00:11:20;14.60;80.50
13992;DHT22;7070;53.586;9.692;2023-07-20T00:13:47;14.70;80.50
13992;DHT22;7070;53.586;9.692;2023-07-20T00:16:15;14.80;80.60
13992;DHT22;7070;53.586;9.692;2023-07-20T00:18:42;14.90;80.60
13992;DHT22;7070;53.586;9.692;2023-07-20T00:21:09;15.00;80.70
13992;DHT22;7070;53.586;9.692;2023-07-20T00:23:36;15.10;80.60
13992;DHT22;7070;53.586;9.692;2023-07-20T00:26:03;15.20;81.40
13992;DHT22;7070;53.586;9.692;2023-07-20T00:28:30;15.20;80.60
13992;DHT22;7070;53.586;9.692;2023-07-20T00:30:58;15.30;80.70
13992;DHT22;7070;53.586;9.692;2023-07-20T00:33:27;15.30;80.60
13992;DHT22;7070;53.586;9.692;2023-07-20T00:35:54;15.40;80.60
13992;DHT22;7070;53.586;9.692;2023-07-20T00:38:22;15.40;80.60
13992;DHT22;7070;53.586;9.692;2023-07-20T00:40:48;15.40;80.40
13992;DHT22;7070;53.586;9.692;2023-07-20T00:43:16;15.40;80.40
13992;DHT22;7070;53.586;9.692;2023-07-20T00:45:43;15.50;80.50
13992;DHT22;7070;53.586;9.692;2023-07-20T00:48:11;15.40;80.50
13992;DHT22;7070;53.586;9.692;2023-07-20T00:50:40;15.40;80.40
13992;DHT22;7070;53.586;9.692;2023-07-20T00:53:07;15.40;80.30
13992;DHT22;7070;53.586;9.692;2023-07-20T00:55:34;15.40;80.30
13992;DHT22;7070;53.586;9.692;2023-07-20T00:58:01;15.30;80.40
13992;DHT22;7070;53.586;9.692;2023-07-20T01:00:28;15.40;80.40
13992;DHT22;7070;53.586;9.692;2023-07-20T01:02:55;15.40;80.50
13992;DHT22;7070;53.586;9.692;2023-07-20T01:05:28;15.40;80.50
13992;DHT22;7070;53.586;9.692;2023-07-20T01:08:06;15.30;80.50
13992;DHT22;7070;53.586;9.692;2023-07-20T01:10:40;15.30;80.60
13992;DHT22;7070;53.586;9.692;2023-07-20T01:13:10;15.40;80.70
13992;DHT22;7070;53.586;9.692;2023-07-20T01:15:37;15.30;80.70
13992;DHT22;7070;53.586;9.692;2023-07-20T01:18:04;15.40;80.80
13992;DHT22;7070;53.586;9.692;2023-07-20T01:20:32;15.40;80.80
13992;DHT22;7070;53.586;9.692;2023-07-20T01:23:22;15.40;80.80
13992;DHT22;7070;53.586;9.692;2023-07-20T01:26:26;15.40;81.00
13992;DHT22;7070;53.586;9.692;2023-07-20T01:29:17;15.40;81.20
13992;DHT22;7070;53.586;9.692;2023-07-20T01:31:47;15.30;80.90
13992;DHT22;7070;53.586;9.692;2023-07-20T01:34:17;15.30;80.90
13992;DHT22;7070;53.586;9.692;2023-07-20T01:36:46;15.30;80.90
13992;DHT22;7070;53.586;9.692;2023-07-20T01:39:17;15.40;81.10
13992;DHT22;7070;53.586;9.692;2023-07-20T01:41:45;15.40;81.20
13992;DHT22;7070;53.586;9.692;2023-07-20T01:44:12;15.40;81.20
13992;DHT22;7070;53.586;9.692;2023-07-20T01:46:39;15.40;81.10
13992;DHT22;7070;53.586;9.692;2023-07-20T01:49:08;15.50;81.20
13992;DHT22;7070;53.586;9.692;2023-07-20T01:51:34;15.50;81.20
13992;DHT22;7070;53.586;9.692;2023-07-20T01:54:01;15.50;81.10
13992;DHT22;7070;53.586;9.692;2023-07-20T01:56:28;15.50;81.20
13992;DHT22;7070;53.586;9.692;2023-07-20T01:58:55;15.50;81.10
13992;DHT22;7070;53.586;9.692;2023-07-20T02:01:22;15.50;81.10
13992;DHT22;7070;53.586;9.692;2023-07-20T02:03:49;15.50;81.10
13992;DHT22;7070;53.586;9.692;2023-07-20T02:06:17;15.40;81.90
13992;DHT22;7070;53.586;9.692;2023-07-20T02:08:44;15.40;81.00
13992;DHT22;7070;53.586;9.692;2023-07-20T02:11:11;15.40;81.20
13992;DHT22;7070;53.586;9.692;2023-07-20T02:13:38;15.50;81.20
13992;DHT22;7070;53.586;9.692;2023-07-20T02:16:05;15.40;81.20
13992;DHT22;7070;53.586;9.692;2023-07-20T02:18:33;15.40;81.10
13992;DHT22;7070;53.586;9.692;2023-07-20T02:21:01;15.40;81.20
13992;DHT22;7070;53.586;9.692;2023-07-20T02:23:29;15.40;81.20
13992;DHT22;7070;53.586;9.692;2023-07-20T02:25:57;15.40;81.90
13992;DHT22;7070;53.586;9.692;2023-07-20T02:28:24;15.40;81.30
13992;DHT22;7070;53.586;9.692;2023-07-20T02:30:51;15.30;81.20
13992;DHT22;7070;53.586;9.692;2023-07-20T02:33:17;15.30;81.20
13992;DHT22;7070;53.586;9.692;2023-07-20T02:35:45;15.30;81.30
13992;DHT22;7070;53.586;9.692;2023-07-20T02:38:12;15.30;81.30
13992;DHT22;7070;53.586;9.692;2023-07-20T02:40:40;15.30;81.30
13992;DHT22;7070;53.586;9.692;2023-07-20T02:43:07;15.20;81.30
13992;DHT22;7070;53.586;9.692;2023-07-20T02:45:35;15.30;81.40
13992;DHT22;7070;53.586;9.692;2023-07-20T02:48:02;15.20;81.30
13992;DHT22;7070;53.586;9.692;2023-07-20T02:50:29;15.30;81.40
13992;DHT22;7070;53.586;9.692;2023-07-20T02:52:56;15.20;81.30
13992;DHT22;7070;53.586;9.692;2023-07-20T02:55:23;15.20;81.30
13992;DHT22;7070;53.586;9.692;2023-07-20T02:57:51;15.30;81.50
13992;DHT22;7070;53.586;9.692;2023-07-20T03:00:18;15.20;81.50
13992;DHT22;7070;53.586;9.692;2023-07-20T03:02:45;15.20;81.60
13992;DHT22;7070;53.586;9.692;2023-07-20T03:05:13;15.20;81.70
13992;DHT22;7070;53.586;9.692;2023-07-20T03:07:40;15.20;81.70
13992;DHT22;7070;53.586;9.692;2023-07-20T03:10:09;15.30;81.90
13992;DHT22;7070;53.586;9.692;2023-07-20T03:12:36;15.30;81.90
13992;DHT22;7070;53.586;9.692;2023-07-20T03:15:06;15.30;81.90
13992;DHT22;7070;53.586;9.692;2023-07-20T03:17:33;15.30;81.80
13992;DHT22;7070;53.586;9.692;2023-07-20T03:20:00;15.30;81.90
13992;DHT22;7070;53.586;9.692;2023-07-20T03:22:28;15.30;81.90
13992;DHT22;7070;53.586;9.692;2023-07-20T03:24:55;15.30;81.90
13992;DHT22;7070;53.586;9.692;2023-07-20T03:27:22;15.30;81.90
13992;DHT22;7070;53.586;9.692;2023-07-20T03:29:48;15.40;82.00
13992;DHT22;7070;53.586;9.692;2023-07-20T03:32:17;15.30;81.80
13992;DHT22;7070;53.586;9.692;2023-07-20T03:34:44;15.40;82.00
13992;DHT22;7070;53.586;9.692;2023-07-20T03:37:11;15.40;81.90
13992;DHT22;7070;53.586;9.692;2023-07-20T03:39:38;15.30;81.90
13992;DHT22;7070;53.586;9.692;2023-07-20T03:42:05;15.30;81.80
13992;DHT22;7070;53.586;9.692;2023-07-20T03:44:32;15.40;81.70
13992;DHT22;7070;53.586;9.692;2023-07-20T03:46:59;15.30;81.70
13992;DHT22;7070;53.586;9.692;2023-07-20T03:49:27;15.30;81.70
13992;DHT22;7070;53.586;9.692;2023-07-20T03:51:54;15.30;81.80
13992;DHT22;7070;53.586;9.692;2023-07-20T03:54:21;15.20;81.90
13992;DHT22;7070;53.586;9.692;2023-07-20T03:56:48;15.30;82.10
13992;DHT22;7070;53.586;9.692;2023-07-20T03:59:15;15.30;82.10
13992;DHT22;7070;53.586;9.692;2023-07-20T04:01:41;15.30;82.10
13992;DHT22;7070;53.586;9.692;2023-07-20T04:04:08;15.30;82.10
13992;DHT22;7070;53.586;9.692;2023-07-20T04:06:37;15.20;81.90
13992;DHT22;7070;53.586;9.692;2023-07-20T04:09:04;15.20;82.20
13992;DHT22;7070;53.586;9.692;2023-07-20T04:11:31;15.20;81.90
13992;DHT22;7070;53.586;9.692;2023-07-20T04:13:58;15.20;81.70
13992;DHT22;7070;53.586;9.692;2023-07-20T04:16:25;15.20;81.70
13992;DHT22;7070;53.586;9.692;2023-07-20T04:18:54;15.10;81.60
13992;DHT22;7070;53.586;9.692;2023-07-20T04:21:21;15.10;81.60
13992;DHT22;7070;53.586;9.692;2023-07-20T04:23:49;15.00;81.60
13992;DHT22;7070;53.586;9.692;2023-07-20T04:26:16;14.90;81.70
13992;DHT22;7070;53.586;9.692;2023-07-20T04:28:43;14.90;81.70
13992;DHT22;7070;53.586;9.692;2023-07-20T04:31:10;15.20;82.10
13992;DHT22;7070;53.586;9.692;2023-07-20T04:33:38;14.90;81.80
13992;DHT22;7070;53.586;9.692;2023-07-20T04:36:05;14.90;82.00
13992;DHT22;7070;53.586;9.692;2023-07-20T04:38:32;14.90;82.00
13992;DHT22;7070;53.586;9.692;2023-07-20T04:41:01;14.90;82.40
13992;DHT22;7070;53.586;9.692;2023-07-20T04:43:29;14.90;82.80
13992;DHT22;7070;53.586;9.692;2023-07-20T04:45:56;14.90;83.20
13992;DHT22;7070;53.586;9.692;2023-07-20T04:48:24;15.10;83.60
13992;DHT22;7070;53.586;9.692;2023-07-20T04:50:51;15.30;84.00
13992;DHT22;7070;53.586;9.692;2023-07-20T04:53:18;15.40;84.10
13992;DHT22;7070;53.586;9.692;2023-07-20T04:55:48;15.60;84.20
13992;DHT22;7070;53.586;9.692;2023-07-20T04:58:18;15.80;84.50
13992;DHT22;7070;53.586;9.692;2023-07-20T05:00:45;16.00;84.80
13992;DHT22;7070;53.586;9.692;2023-07-20T05:03:12;16.30;85.10
13992;DHT22;7070;53.586;9.692;2023-07-20T05:05:39;16.50;85.30
13992;DHT22;7070;53.586;9.692;2023-07-20T05:08:06;16.80;85.50
13992;DHT22;7070;53.586;9.692;2023-07-20T05:10:33;17.00;85.60
13992;DHT22;7070;53.586;9.692;2023-07-20T05:13:00;17.30;85.70
13992;DHT22;7070;53.586;9.692;2023-07-20T05:15:28;17.60;85.60
13992;DHT22;7070;53.586;9.692;2023-07-20T05:17:55;17.80;85.30
13992;DHT22;7070;53.586;9.692;2023-07-20T05:20:21;17.90;84.90
13992;DHT22;7070;53.586;9.692;2023-07-20T05:22:48;18.10;84.80
13992;DHT22;7070;53.586;9.692;2023-07-20T05:25:15;18.10;84.80
13992;DHT22;7070;53.586;9.692;2023-07-20T05:27:44;18.20;84.90
13992;DHT22;7070;53.586;9.692;2023-07-20T05:30:11;18.40;85.10
13992;DHT22;7070;53.586;9.692;2023-07-20T05:32:39;18.50;85.10
13992;DHT22;7070;53.586;9.692;2023-07-20T05:35:09;18.60;85.10
13992;DHT22;7070;53.586;9.692;2023-07-20T05:37:37;18.80;85.30
13992;DHT22;7070;53.586;9.692;2023-07-20T05:40:05;19.00;85.40
13992;DHT22;7070;53.586;9.692;2023-07-20T05:42:33;19.10;85.50
13992;DHT22;7070;53.586;9.692;2023-07-20T05:45:00;19.30;85.80
13992;DHT22;7070;53.586;9.692;2023-07-20T05:47:27;19.50;85.60
13992;DHT22;7070;53.586;9.692;2023-07-20T05:49:56;19.60;85.50
13992;DHT22;7070;53.586;9.692;2023-07-20T05:52:22;19.70;85.50
13992;DHT22;7070;53.586;9.692;2023-07-20T05:54:49;19.80;85.50
13992;DHT22;7070;53.586;9.692;2023-07-20T05:57:16;20.00;85.70
13992;DHT22;7070;53.586;9.692;2023-07-20T05:59:43;20.10;85.70
13992;DHT22;7070;53.586;9.692;2023-07-20T06:02:10;20.20;85.70
13992;DHT22;7070;53.586;9.692;2023-07-20T06:04:38;20.30;86.00
13992;DHT22;7070;53.586;9.692;2023-07-20T06:07:06;20.50;86.30
13992;DHT22;7070;53.586;9.692;2023-07-20T06:09:34;20.60;86.30
13992;DHT22;7070;53.586;9.692;2023-07-20T06:12:01;20.80;86.10
13992;DHT22;7070;53.586;9.692;2023-07-20T06:14:28;20.90;85.50
13992;DHT22;7070;53.586;9.692;2023-07-20T06:16:55;20.90;84.90
13992;DHT22;7070;53.586;9.692;2023-07-20T06:19:22;20.90;84.70
13992;DHT22;7070;53.586;9.692;2023-07-20T06:21:49;20.80;84.50
13992;DHT22;7070;53.586;9.692;2023-07-20T06:24:17;20.80;84.30
13992;DHT22;7070;53.586;9.692;2023-07-20T06:26:44;20.70;84.00
13992;DHT22;7070;53.586;9.692;2023-07-20T06:29:11;20.60;83.90
13992;DHT22;7070;53.586;9.692;2023-07-20T06:31:38;20.50;84.20
13992;DHT22;7070;53.586;9.692;2023-07-20T06:34:05;20.40;84.60
13992;DHT22;7070;53.586;9.692;2023-07-20T06:36:32;20.30;84.90
13992;DHT22;7070;53.586;9.692;2023-07-20T06:38:59;20.30;85.00
13992;DHT22;7070;53.586;9.692;2023-07-20T06:41:27;20.30;85.00
13992;DHT22;7070;53.586;9.692;2023-07-20T06:43:54;20.30;85.10
13992;DHT22;7070;53.586;9.692;2023-07-20T06:46:24;20.30;85.10
13992;DHT22;7070;53.586;9.692;2023-07-20T06:48:51;20.30;84.90
13992;DHT22;7070;53.586;9.692;2023-07-20T06:51:18;20.30;85.00
13992;DHT22;7070;53.586;9.692;2023-07-20T06:53:45;20.30;85.20
13992;DHT22;7070;53.586;9.692;2023-07-20T06:56:11;20.40;85.80
13992;DHT22;7070;53.586;9.692;2023-07-20T06:58:40;20.50;86.60
13992;DHT22;7070;53.586;9.692;2023-07-20T07:01:07;20.60;87.30
13992;DHT22;7070;53.586;9.692;2023-07-20T07:03:35;20.80;87.60
13992;DHT22;7070;53.586;9.692;2023-07-20T07:06:02;21.00;87.10
13992;DHT22;7070;53.586;9.692;2023-07-20T07:08:29;21.10;86.50
13992;DHT22;7070;53.586;9.692;2023-07-20T07:10:56;21.20;86.00
13992;DHT22;7070;53.586;9.692;2023-07-20T07:13:23;21.20;85.40
13992;DHT22;7070;53.586;9.692;2023-07-20T07:15:51;21.10;84.60
13992;DHT22;7070;53.586;9.692;2023-07-20T07:18:18;21.00;84.40
13992;DHT22;7070;53.586;9.692;2023-07-20T07:20:54;20.90;84.50
13992;DHT22;7070;53.586;9.692;2023-07-20T07:23:21;20.80;84.70
13992;DHT22;7070;53.586;9.692;2023-07-20T07:25:48;20.70;84.70
13992;DHT22;7070;53.586;9.692;2023-07-20T07:28:15;20.60;84.80
13992;DHT22;7070;53.586;9.692;2023-07-20T07:30:42;20.60;85.00
13992;DHT22;7070;53.586;9.692;2023-07-20T07:33:10;20.60;85.40
13992;DHT22;7070;53.586;9.692;2023-07-20T07:35:38;20.50;85.60
13992;DHT22;7070;53.586;9.692;2023-07-20T07:38:05;20.50;86.00
13992;DHT22;7070;53.586;9.692;2023-07-20T07:40:32;20.60;86.20
13992;DHT22;7070;53.586;9.692;2023-07-20T07:42:59;20.60;86.40
13992;DHT22;7070;53.586;9.692;2023-07-20T07:45:26;20.70;86.60
13992;DHT22;7070;53.586;9.692;2023-07-20T07:47:53;20.80;86.60
13992;DHT22;7070;53.586;9.692;2023-07-20T07:50:21;20.80;87.20
13992;DHT22;7070;53.586;9.692;2023-07-20T07:52:48;20.90;86.50
13992;DHT22;7070;53.586;9.692;2023-07-20T07:55:15;20.80;86.20
13992;DHT22;7070;53.586;9.692;2023-07-20T07:57:43;20.90;85.80
13992;DHT22;7070;53.586;9.692;2023-07-20T08:00:11;20.90;85.80
13992;DHT22;7070;53.586;9.692;2023-07-20T08:02:40;20.80;85.90
13992;DHT22;7070;53.586;9.692;2023-07-20T08:05:08;20.80;86.10
13992;DHT22;7070;53.586;9.692;2023-07-20T08:07:36;20.80;86.40
13992;DHT22;7070;53.586;9.692;2023-07-20T08:10:04;20.80;86.50
13992;DHT22;7070;53.586;9.692;2023-07-20T08:12:31;20.80;87.00
13992;DHT22;7070;53.586;9.692;2023-07-20T08:14:58;20.90;88.30
13992;DHT22;7070;53.586;9.692;2023-07-20T08:17:25;21.00;87.60
13992;DHT22;7070;53.586;9.692;2023-07-20T08:19:52;21.10;86.50
13992;DHT22;7070;53.586;9.692;2023-07-20T08:22:19;21.10;85.50
13992;DHT22;7070;53.586;9.692;2023-07-20T08:24:47;20.90;84.90
13992;DHT22;7070;53.586;9.692;2023-07-20T08:27:14;20.80;84.80
13992;DHT22;7070;53.586;9.692;2023-07-20T08:29:41;20.60;84.90
13992;DHT22;7070;53.586;9.692;2023-07-20T08:32:08;20.50;85.10
13992;DHT22;7070;53.586;9.692;2023-07-20T08:34:35;20.30;85.20
13992;DHT22;7070;53.586;9.692;2023-07-20T08:37:01;20.10;85.10
13992;DHT22;7070;53.586;9.692;2023-07-20T08:39:28;20.10;85.40
13992;DHT22;7070;53.586;9.692;2023-07-20T08:41:59;20.00;85.70
13992;DHT22;7070;53.586;9.692;2023-07-20T08:44:30;20.00;85.90
13992;DHT22;7070;53.586;9.692;2023-07-20T08:46:59;19.90;85.80
13992;DHT22;7070;53.586;9.692;2023-07-20T08:49:28;19.90;86.00
13992;DHT22;7070;53.586;9.692;2023-07-20T08:51:56;19.80;85.90
13992;DHT22;7070;53.586;9.692;2023-07-20T08:54:25;20.00;86.30
13992;DHT22;7070;53.586;9.692;2023-07-20T08:56:58;20.00;86.90
13992;DHT22;7070;53.586;9.692;2023-07-20T08:59:26;20.10;87.20
13992;DHT22;7070;53.586;9.692;2023-07-20T09:01:55;20.30;87.80
13992;DHT22;7070;53.586;9.692;2023-07-20T09:04:22;20.50;88.20
13992;DHT22;7070;53.586;9.692;2023-07-20T09:06:50;20.60;88.00
13992;DHT22;7070;53.586;9.692;2023-07-20T09:09:17;20.90;88.00
13992;DHT22;7070;53.586;9.692;2023-07-20T09:11:47;21.00;87.10
13992;DHT22;7070;53.586;9.692;2023-07-20T09:14:15;21.00;82.60
13992;DHT22;7070;53.586;9.692;2023-07-20T09:16:48;20.70;80.00
13992;DHT22;7070;53.586;9.692;2023-07-20T09:19:15;20.20;79.50
13992;DHT22;7070;53.586;9.692;2023-07-20T09:21:44;19.60;79.60
13992;DHT22;7070;53.586;9.692;2023-07-20T09:24:12;19.10;80.80
13992;DHT22;7070;53.586;9.692;2023-07-20T09:26:44;18.70;80.40
13992;DHT22;7070;53.586;9.692;2023-07-20T09:29:11;18.20;81.70
13992;DHT22;7070;53.586;9.692;2023-07-20T09:31:39;18.00;81.60
13992;DHT22;7070;53.586;9.692;2023-07-20T09:34:06;17.70;82.10
13992;DHT22;7070;53.586;9.692;2023-07-20T09:36:34;17.50;82.60
13992;DHT22;7070;53.586;9.692;2023-07-20T09:39:03;17.30;83.20
13992;DHT22;7070;53.586;9.692;2023-07-20T09:41:31;17.30;83.90
13992;DHT22;7070;53.586;9.692;2023-07-20T09:44:06;17.30;84.50
13992;DHT22;7070;53.586;9.692;2023-07-20T09:46:44;17.30;85.30
13992;DHT22;7070;53.586;9.692;2023-07-20T09:49:11;17.50;86.10
13992;DHT22;7070;53.586;9.692;2023-07-20T09:51:38;17.60;86.40
13992;DHT22;7070;53.586;9.692;2023-07-20T09:54:06;17.80;86.40
13992;DHT22;7070;53.586;9.692;2023-07-20T09:56:35;18.00;86.00
13992;DHT22;7070;53.586;9.692;2023-07-20T09:59:02;18.10;85.70
13992;DHT22;7070;53.586;9.692;2023-07-20T10:01:30;18.10;85.30
13992;DHT22;7070;53.586;9.692;2023-07-20T10:04:03;18.20;85.50
13992;DHT22;7070;53.586;9.692;2023-07-20T10:06:32;18.20;86.00
13992;DHT22;7070;53.586;9.692;2023-07-20T10:09:02;18.40;87.00
13992;DHT22;7070;53.586;9.692;2023-07-20T10:11:31;18.60;87.50
13992;DHT22;7070;53.586;9.692;2023-07-20T10:14:03;18.80;87.40
13992;DHT22;7070;53.586;9.692;2023-07-20T10:16:34;19.00;87.00
13992;DHT22;7070;53.586;9.692;2023-07-20T10:19:05;19.20;86.20
13992;DHT22;7070;53.586;9.692;2023-07-20T10:21:35;19.20;85.40
13992;DHT22;7070;53.586;9.692;2023-07-20T10:24:05;19.20;85.00
13992;DHT22;7070;53.586;9.692;2023-07-20T10:26:32;19.10;84.80
13992;DHT22;7070;53.586;9.692;2023-07-20T10:29:01;19.10;84.90
13992;DHT22;7070;53.586;9.692;2023-07-20T10:31:28;19.10;85.20
13992;DHT22;7070;53.586;9.692;2023-07-20T10:33:57;19.00;85.50
13992;DHT22;7070;53.586;9.692;2023-07-20T10:36:26;19.10;86.40
13992;DHT22;7070;53.586;9.692;2023-07-20T10:38:54;19.20;87.10
13992;DHT22;7070;53.586;9.692;2023-07-20T10:41:27;19.40;86.90
13992;DHT22;7070;53.586;9.692;2023-07-20T10:43:58;19.50;86.40
13992;DHT22;7070;53.586;9.692;2023-07-20T10:46:41;19.60;86.00
13992;DHT22;7070;53.586;9.692;2023-07-20T10:49:09;19.60;85.40
13992;DHT22;7070;53.586;9.692;2023-07-20T10:51:40;19.50;85.00
13992;DHT22;7070;53.586;9.692;2023-07-20T10:54:08;19.50;85.20
13992;DHT22;7070;53.586;9.692;2023-07-20T10:56:35;19.50;86.40
13992;DHT22;7070;53.586;9.692;2023-07-20T10:59:17;19.50;86.20
13992;DHT22;7070;53.586;9.692;2023-07-20T11:01:45;19.60;86.60
13992;DHT22;7070;53.586;9.692;2023-07-20T11:04:14;19.70;86.60
13992;DHT22;7070;53.586;9.692;2023-07-20T11:06:44;19.90;86.50
13992;DHT22;7070;53.586;9.692;2023-07-20T11:09:12;19.90;86.30
13992;DHT22;7070;53.586;9.692;2023-07-20T11:11:41;19.90;86.20
13992;DHT22;7070;53.586;9.692;2023-07-20T11:14:10;19.90;86.30
13992;DHT22;7070;53.586;9.692;2023-07-20T11:16:47;20.00;86.70
13992;DHT22;7070;53.586;9.692;2023-07-20T11:19:15;20.10;86.90
13992;DHT22;7070;53.586;9.692;2023-07-20T11:21:45;20.20;87.10
13992;DHT22;7070;53.586;9.692;2023-07-20T11:24:13;20.30;86.90
13992;DHT22;7070;53.586;9.692;2023-07-20T11:26:41;20.40;86.90
13992;DHT22;7070;53.586;9.692;2023-07-20T11:29:08;20.50;87.20
13992;DHT22;7070;53.586;9.692;2023-07-20T11:31:36;20.60;87.20
13992;DHT22;7070;53.586;9.692;2023-07-20T11:34:03;20.70;87.10
13992;DHT22;7070;53.586;9.692;2023-07-20T11:36:30;20.80;87.00
13992;DHT22;7070;53.586;9.692;2023-07-20T11:38:58;20.90;87.10
13992;DHT22;7070;53.586;9.692;2023-07-20T11:41:25;21.10;87.20
13992;DHT22;7070;53.586;9.692;2023-07-20T11:43:53;21.10;87.50
13992;DHT22;7070;53.586;9.692;2023-07-20T11:46:20;19.50;86.60
13992;DHT22;7070;53.586;9.692;2023-07-20T11:48:47;21.50;88.80
13992;DHT22;7070;53.586;9.692;2023-07-20T11:51:15;21.80;88.80
13992;DHT22;7070;53.586;9.692;2023-07-20T11:53:43;22.00;88.40
13992;DHT22;7070;53.586;9.692;2023-07-20T11:56:11;22.20;87.50
13992;DHT22;7070;53.586;9.692;2023-07-20T11:58:43;22.20;86.50
13992;DHT22;7070;53.586;9.692;2023-07-20T12:01:11;22.20;85.90
13992;DHT22;7070;53.586;9.692;2023-07-20T12:03:38;22.10;85.40
13992;DHT22;7070;53.586;9.692;2023-07-20T12:06:08;22.00;85.30
13992;DHT22;7070;53.586;9.692;2023-07-20T12:08:38;21.90;85.60
13992;DHT22;7070;53.586;9.692;2023-07-20T12:11:06;21.80;85.70
13992;DHT22;7070;53.586;9.692;2023-07-20T12:13:40;21.70;85.80
13992;DHT22;7070;53.586;9.692;2023-07-20T12:16:09;21.70;85.80
13992;DHT22;7070;53.586;9.692;2023-07-20T12:18:37;21.70;85.90
13992;DHT22;7070;53.586;9.692;2023-07-20T12:21:06;21.60;85.80
13992;DHT22;7070;53.586;9.692;2023-07-20T12:23:37;21.60;85.60
13992;DHT22;7070;53.586;9.692;2023-07-20T12:26:06;21.60;86.10
13992;DHT22;7070;53.586;9.692;2023-07-20T12:28:38;21.50;86.40
13992;DHT22;7070;53.586;9.692;2023-07-20T12:31:05;21.60;86.80
13992;DHT22;7070;53.586;9.692;2023-07-20T12:33:32;21.60;86.80
13992;DHT22;7070;53.586;9.692;2023-07-20T12:36:00;21.80;86.30
13992;DHT22;7070;53.586;9.692;2023-07-20T12:38:26;21.90;87.00
13992;DHT22;7070;53.586;9.692;2023-07-20T12:40:54;22.00;87.30
13992;DHT22;7070;53.586;9.692;2023-07-20T12:43:21;22.10;87.10
13992;DHT22;7070;53.586;9.692;2023-07-20T12:45:49;22.10;85.90
13992;DHT22;7070;53.586;9.692;2023-07-20T12:48:16;22.20;86.00
13992;DHT22;7070;53.586;9.692;2023-07-20T12:50:43;22.20;85.20
13992;DHT22;7070;53.586;9.692;2023-07-20T12:53:10;22.10;85.00
13992;DHT22;7070;53.586;9.692;2023-07-20T12:55:37;22.00;84.70
13992;DHT22;7070;53.586;9.692;2023-07-20T12:58:05;22.00;84.50
13992;DHT22;7070;53.586;9.692;2023-07-20T13:00:32;21.90;84.80
13992;DHT22;7070;53.586;9.692;2023-07-20T13:03:00;21.90;85.50
13992;DHT22;7070;53.586;9.692;2023-07-20T13:05:30;21.80;83.60
13992;DHT22;7070;53.586;9.692;2023-07-20T13:07:57;21.70;83.30
13992;DHT22;7070;53.586;9.692;2023-07-20T13:10:25;21.60;83.50
13992;DHT22;7070;53.586;9.692;2023-07-20T13:12:51;21.50;83.00
13992;DHT22;7070;53.586;9.692;2023-07-20T13:15:18;21.40;81.60
13992;DHT22;7070;53.586;9.692;2023-07-20T13:17:45;21.30;81.80
13992;DHT22;7070;53.586;9.692;2023-07-20T13:20:14;21.20;82.00
13992;DHT22;7070;53.586;9.692;2023-07-20T13:22:41;21.10;81.70
13992;DHT22;7070;53.586;9.692;2023-07-20T13:25:08;21.00;81.70
13992;DHT22;7070;53.586;9.692;2023-07-20T13:27:36;20.90;82.10
13992;DHT22;7070;53.586;9.692;2023-07-20T13:30:04;20.80;81.60
13992;DHT22;7070;53.586;9.692;2023-07-20T13:32:32;20.80;82.00
13992;DHT22;7070;53.586;9.692;2023-07-20T13:34:59;20.80;82.20
13992;DHT22;7070;53.586;9.692;2023-07-20T13:37:28;20.70;82.10
13992;DHT22;7070;53.586;9.692;2023-07-20T13:39:55;20.70;82.70
13992;DHT22;7070;53.586;9.692;2023-07-20T13:42:22;20.60;82.70
13992;DHT22;7070;53.586;9.692;2023-07-20T13:44:48;20.60;83.00
13992;DHT22;7070;53.586;9.692;2023-07-20T13:47:15;20.70;83.70
13992;DHT22;7070;53.586;9.692;2023-07-20T13:49:43;20.70;83.20
13992;DHT22;7070;53.586;9.692;2023-07-20T13:52:10;20.90;83.50
13992;DHT22;7070;53.586;9.692;2023-07-20T13:54:38;20.90;83.40
13992;DHT22;7070;53.586;9.692;2023-07-20T13:57:05;21.00;83.30
13992;DHT22;7070;53.586;9.692;2023-07-20T13:59:32;21.10;83.10
13992;DHT22;7070;53.586;9.692;2023-07-20T14:01:59;21.10;83.00
13992;DHT22;7070;53.586;9.692;2023-07-20T14:04:26;21.10;83.00
13992;DHT22;7070;53.586;9.692;2023-07-20T14:06:54;21.10;82.80
13992;DHT22;7070;53.586;9.692;2023-07-20T14:09:21;21.20;82.20
13992;DHT22;7070;53.586;9.692;2023-07-20T14:11:49;21.20;81.70
13992;DHT22;7070;53.586;9.692;2023-07-20T14:14:16;21.10;81.40
13992;DHT22;7070;53.586;9.692;2023-07-20T14:16:44;21.00;81.00
13992;DHT22;7070;53.586;9.692;2023-07-20T14:19:11;21.00;81.40
13992;DHT22;7070;53.586;9.692;2023-07-20T14:21:40;21.00;80.60
13992;DHT22;7070;53.586;9.692;2023-07-20T14:24:07;21.00;80.60
13992;DHT22;7070;53.586;9.692;2023-07-20T14:26:34;20.90;80.70
13992;DHT22;7070;53.586;9.692;2023-07-20T14:29:02;20.90;80.50
13992;DHT22;7070;53.586;9.692;2023-07-20T14:31:29;20.90;80.40
13992;DHT22;7070;53.586;9.692;2023-07-20T14:33:56;20.90;80.80
13992;DHT22;7070;53.586;9.692;2023-07-20T14:36:23;20.90;81.50
13992;DHT22;7070;53.586;9.692;2023-07-20T14:38:49;20.90;81.00
13992;DHT22;7070;53.586;9.692;2023-07-20T14:41:16;21.10;81.90
13992;DHT22;7070;53.586;9.692;2023-07-20T14:43:43;21.10;82.10
13992;DHT22;7070;53.586;9.692;2023-07-20T14:46:11;21.20;82.00
13992;DHT22;7070;53.586;9.692;2023-07-20T14:48:38;21.30;81.20
13992;DHT22;7070;53.586;9.692;2023-07-20T14:51:05;21.40;81.80
13992;DHT22;7070;53.586;9.692;2023-07-20T14:53:32;21.50;82.00
13992;DHT22;7070;53.586;9.692;2023-07-20T14:55:59;21.60;81.10
13992;DHT22;7070;53.586;9.692;2023-07-20T14:58:27;23.80;83.60
13992;DHT22;7070;53.586;9.692;2023-07-20T15:00:53;21.70;79.90
13992;DHT22;7070;53.586;9.692;2023-07-20T15:03:25;21.70;80.10
13992;DHT22;7070;53.586;9.692;2023-07-20T15:05:52;20.10;78.60
13992;DHT22;7070;53.586;9.692;2023-07-20T15:08:18;21.50;79.70
13992;DHT22;7070;53.586;9.692;2023-07-20T15:10:45;21.50;79.60
13992;DHT22;7070;53.586;9.692;2023-07-20T15:13:12;21.50;79.30
13992;DHT22;7070;53.586;9.692;2023-07-20T15:15:39;21.50;79.20
13992;DHT22;7070;53.586;9.692;2023-07-20T15:18:09;21.40;78.70
13992;DHT22;7070;53.586;9.692;2023-07-20T15:20:37;21.30;77.90
13992;DHT22;7070;53.586;9.692;2023-07-20T15:23:04;21.20;78.20
13992;DHT22;7070;53.586;9.692;2023-07-20T15:25:30;21.10;77.40
13992;DHT22;7070;53.586;9.692;2023-07-20T15:27:57;21.00;77.80
13992;DHT22;7070;53.586;9.692;2023-07-20T15:30:24;20.90;77.50
13992;DHT22;7070;53.586;9.692;2023-07-20T15:32:51;20.80;77.80
13992;DHT22;7070;53.586;9.692;2023-07-20T15:35:18;20.80;78.20
13992;DHT22;7070;53.586;9.692;2023-07-20T15:37:46;20.80;78.20
13992;DHT22;7070;53.586;9.692;2023-07-20T15:40:13;20.80;78.40
13992;DHT22;7070;53.586;9.692;2023-07-20T15:42:40;20.80;77.90
13992;DHT22;7070;53.586;9.692;2023-07-20T15:45:08;20.70;77.70
13992;DHT22;7070;53.586;9.692;2023-07-20T15:47:35;20.80;78.00
13992;DHT22;7070;53.586;9.692;2023-07-20T15:50:02;20.70;77.70